sensor_id;sensor_type;location;lat;lon;timestamp;pressure;altitude;pressure_sealevel;temperature;humidity
55914;BME280;58179;48.776;9.124;2022-09-12T00:01:13;97496.47;;;13.24;100.00
55914;BME280;58179;48.776;9.124;2022-09-12T00:03:40;97496.22;;;13.21;100.00
55914;BME280;58179;48.776;9.124;2022-09-12T00:06:13;97502.06;;;13.23;100.00
55914;BME280;58179;48.776;9.124;2022-09-12T00:08:40;97494.63;;;13.20;100.00
55914;BME280;58179;48.776;9.124;2022-09-12T00:11:08;97498.88;;;13.21;100.00
55914;BME280;58179;48.776;9.124;2022-09-12T00:13:35;97499.94;;;13.20;100.00
55914;BME280;58179;48.776;9.124;2022-09-12T00:16:03;97499.66;;;13.16;100.00
55914;BME280;58179;48.776;9.124;2022-09-12T00:18:30;97494.88;;;13.13;100.00
55914;BME280;58179;48.776;9.124;2022-09-12T00:21:00;97493.81;;;13.14;100.00
55914;BME280;58179;48.776;9.124;2022-09-12T00:23:26;97495.91;;;13.12;100.00
55914;BME280;58179;48.776;9.124;2022-09-12T00:25:52;97492.69;;;13.10;100.00
55914;BME280;58179;48.776;9.124;2022-09-12T00:28:18;97492.97;;;13.08;100.00
55914;BME280;58179;48.776;9.124;2022-09-12T00:30:47;97491.41;;;13.07;100.00
55914;BME280;58179;48.776;9.124;2022-09-12T00:33:16;97496.16;;;13.05;100.00
55914;BME280;58179;48.776;9.124;2022-09-12T00:35:43;97492.97;;;13.03;100.00
55914;BME280;58179;48.776;9.124;2022-09-12T00:38:10;97487.66;;;13.03;100.00
55914;BME280;58179;48.776;9.124;2022-09-12T00:40:36;97483.66;;;13.01;100.00
55914;BME280;58179;48.776;9.124;2022-09-12T00:43:01;97487.41;;;13.00;100.00
55914;BME280;58179;48.776;9.124;2022-09-12T00:45:29;97475.97;;;12.99;100.00
55914;BME280;58179;48.776;9.124;2022-09-12T00:47:56;97482.06;;;12.95;100.00
55914;BME280;58179;48.776;9.124;2022-09-12T00:50:24;97486.56;;;12.94;100.00
55914;BME280;58179;48.776;9.124;2022-09-12T00:52:55;97484.44;;;12.91;100.00
55914;BME280;58179;48.776;9.124;2022-09-12T00:55:28;97479.13;;;12.86;100.00
55914;BME280;58179;48.776;9.124;2022-09-12T00:57:59;97480.72;;;12.87;100.00
55914;BME280;58179;48.776;9.124;2022-09-12T01:00:27;97478.88;;;12.93;100.00
55914;BME280;58179;48.776;9.124;2022-09-12T01:02:59;97479.66;;;12.83;100.00
55914;BME280;58179;48.776;9.124;2022-09-12T01:05:28;97476.19;;;12.83;100.00
55914;BME280;58179;48.776;9.124;2022-09-12T01:07:56;97471.94;;;12.82;100.00
55914;BME280;58179;48.776;9.124;2022-09-12T01:10:23;97463.16;;;12.81;100.00
55914;BME280;58179;48.776;9.124;2022-09-12T01:12:49;97464.22;;;12.80;100.00
55914;BME280;58179;48.776;9.124;2022-09-12T01:15:15;97460.25;;;12.77;100.00
55914;BME280;58179;48.776;9.124;2022-09-12T01:17:56;97457.88;;;12.76;100.00
55914;BME280;58179;48.776;9.124;2022-09-12T01:21:01;97454.91;;;12.72;100.00
55914;BME280;58179;48.776;9.124;2022-09-12T01:27:35;97444.28;;;12.67;100.00
55914;BME280;58179;48.776;9.124;2022-09-12T01:30:22;97444.00;;;12.64;100.00
55914;BME280;58179;48.776;9.124;2022-09-12T01:33:10;97442.41;;;12.58;100.00
55914;BME280;58179;48.776;9.124;2022-09-12T01:35:48;97445.59;;;12.55;100.00
55914;BME280;58179;48.776;9.124;2022-09-12T01:38:24;97441.59;;;12.52;100.00
55914;BME280;58179;48.776;9.124;2022-09-12T01:41:01;97445.31;;;12.51;100.00
55914;BME280;58179;48.776;9.124;2022-09-12T01:43:41;97440.50;;;12.48;100.00
55914;BME280;58179;48.776;9.124;2022-09-12T01:46:15;97439.75;;;12.48;100.00
55914;BME280;58179;48.776;9.124;2022-09-12T01:48:46;97433.63;;;12.47;100.00
55914;BME280;58179;48.776;9.124;2022-09-12T01:51:20;97432.84;;;12.47;100.00
55914;BME280;58179;48.776;9.124;2022-09-12T01:53:51;97431.19;;;12.40;100.00
55914;BME280;58179;48.776;9.124;2022-09-12T01:56:21;97435.19;;;12.38;100.00
55914;BME280;58179;48.776;9.124;2022-09-12T01:58:55;97438.09;;;12.36;100.00
55914;BME280;58179;48.776;9.124;2022-09-12T02:01:27;97423.47;;;12.34;100.00
55914;BME280;58179;48.776;9.124;2022-09-12T02:04:01;97428.78;;;12.34;100.00
55914;BME280;58179;48.776;9.124;2022-09-12T02:06:31;97422.97;;;12.32;100.00
55914;BME280;58179;48.776;9.124;2022-09-12T02:09:03;97428.78;;;12.34;100.00
55914;BME280;58179;48.776;9.124;2022-09-12T02:11:33;97423.47;;;12.34;100.00
55914;BME280;58179;48.776;9.124;2022-09-12T02:14:06;97418.72;;;12.31;100.00
55914;BME280;58179;48.776;9.124;2022-09-12T02:16:39;97420.81;;;12.29;100.00
55914;BME280;58179;48.776;9.124;2022-09-12T02:19:11;97418.72;;;12.31;100.00
55914;BME280;58179;48.776;9.124;2022-09-12T02:21:44;97419.78;;;12.30;100.00
55914;BME280;58179;48.776;9.124;2022-09-12T02:24:13;97409.94;;;12.25;100.00
55914;BME280;58179;48.776;9.124;2022-09-12T02:26:46;97410.19;;;12.24;100.00
55914;BME280;58179;48.776;9.124;2022-09-12T02:29:14;97409.41;;;12.28;100.00
55914;BME280;58179;48.776;9.124;2022-09-12T02:31:45;97411.25;;;12.28;100.00
55914;BME280;58179;48.776;9.124;2022-09-12T02:34:26;97409.41;;;12.23;100.00
55914;BME280;58179;48.776;9.124;2022-09-12T02:37:06;97407.00;;;12.22;100.00
55914;BME280;58179;48.776;9.124;2022-09-12T02:39:34;97408.84;;;12.21;100.00
55914;BME280;58179;48.776;9.124;2022-09-12T02:42:01;97399.84;;;12.17;100.00
55914;BME280;58179;48.776;9.124;2022-09-12T02:44:29;97406.97;;;12.12;100.00
55914;BME280;58179;48.776;9.124;2022-09-12T02:47:01;97401.94;;;12.10;100.00
55914;BME280;58179;48.776;9.124;2022-09-12T02:49:29;97403.78;;;12.10;100.00
55914;BME280;58179;48.776;9.124;2022-09-12T02:51:55;97403.25;;;12.08;100.00
55914;BME280;58179;48.776;9.124;2022-09-12T02:54:21;97395.00;;;12.04;100.00
55914;BME280;58179;48.776;9.124;2022-09-12T02:56:48;97395.28;;;12.02;100.00
55914;BME280;58179;48.776;9.124;2022-09-12T02:59:17;97396.31;;;12.01;100.00
55914;BME280;58179;48.776;9.124;2022-09-12T03:02:08;97396.31;;;12.01;100.00
55914;BME280;58179;48.776;9.124;2022-09-12T03:04:52;97399.78;;;12.02;100.00
55914;BME280;58179;48.776;9.124;2022-09-12T03:07:38;97393.13;;;11.99;100.00
55914;BME280;58179;48.776;9.124;2022-09-12T03:10:15;97389.94;;;11.97;100.00
55914;BME280;58179;48.776;9.124;2022-09-12T03:12:57;97393.63;;;11.91;100.00
55914;BME280;58179;48.776;9.124;2022-09-12T03:15:42;97391.22;;;11.90;100.00
55914;BME280;58179;48.776;9.124;2022-09-12T03:18:23;97394.94;;;11.89;100.00
55914;BME280;58179;48.776;9.124;2022-09-12T03:21:03;97399.97;;;11.85;100.00
55914;BME280;58179;48.776;9.124;2022-09-12T03:23:36;97402.63;;;11.85;100.00
55914;BME280;58179;48.776;9.124;2022-09-12T03:26:09;97405.78;;;11.82;100.00
55914;BME280;58179;48.776;9.124;2022-09-12T03:28:37;97406.31;;;11.79;100.00
55914;BME280;58179;48.776;9.124;2022-09-12T03:31:12;97402.31;;;11.77;100.00
55914;BME280;58179;48.776;9.124;2022-09-12T03:33:41;97399.66;;;11.77;100.00
55914;BME280;58179;48.776;9.124;2022-09-12T03:36:13;97402.31;;;11.77;100.00
55914;BME280;58179;48.776;9.124;2022-09-12T03:38:40;97401.25;;;11.78;100.00
55914;BME280;58179;48.776;9.124;2022-09-12T03:41:06;97402.31;;;11.77;100.00
55914;BME280;58179;48.776;9.124;2022-09-12T03:43:32;97398.84;;;11.76;100.00
55914;BME280;58179;48.776;9.124;2022-09-12T03:45:58;97399.31;;;11.73;100.00
55914;BME280;58179;48.776;9.124;2022-09-12T03:48:24;97398.81;;;11.71;100.00
55914;BME280;58179;48.776;9.124;2022-09-12T03:50:51;97396.66;;;11.68;100.00
55914;BME280;58179;48.776;9.124;2022-09-12T03:53:17;97397.22;;;11.70;100.00
55914;BME280;58179;48.776;9.124;2022-09-12T03:55:43;97402.22;;;11.67;100.00
55914;BME280;58179;48.776;9.124;2022-09-12T03:58:09;97404.84;;;11.61;100.00
55914;BME280;58179;48.776;9.124;2022-09-12T04:00:34;97397.94;;;11.60;100.00
55914;BME280;58179;48.776;9.124;2022-09-12T04:03:00;97400.34;;;11.62;100.00
55914;BME280;58179;48.776;9.124;2022-09-12T04:05:26;97397.94;;;11.60;100.00
55914;BME280;58179;48.776;9.124;2022-09-12T04:07:53;97401.41;;;11.61;100.00
55914;BME280;58179;48.776;9.124;2022-09-12T04:10:19;97399.00;;;11.59;100.00
55914;BME280;58179;48.776;9.124;2022-09-12T04:12:45;97400.31;;;11.57;100.00
55914;BME280;58179;48.776;9.124;2022-09-12T04:15:11;97397.91;;;11.55;100.00
55914;BME280;58179;48.776;9.124;2022-09-12T04:17:37;97396.59;;;11.58;100.00
55914;BME280;58179;48.776;9.124;2022-09-12T04:20:04;97399.78;;;11.55;100.00
55914;BME280;58179;48.776;9.124;2022-09-12T04:22:30;97395.78;;;11.52;100.00
55914;BME280;58179;48.776;9.124;2022-09-12T04:24:59;97393.13;;;11.52;100.00
55914;BME280;58179;48.776;9.124;2022-09-12T04:27:25;97398.44;;;11.52;100.00
55914;BME280;58179;48.776;9.124;2022-09-12T04:29:51;97395.03;;;11.57;100.00
55914;BME280;58179;48.776;9.124;2022-09-12T04:32:18;97393.94;;;11.53;100.00
55914;BME280;58179;48.776;9.124;2022-09-12T04:34:43;97394.44;;;11.50;100.00
55914;BME280;58179;48.776;9.124;2022-09-12T04:37:10;97392.56;;;11.50;100.00
55914;BME280;58179;48.776;9.124;2022-09-12T04:39:36;97393.91;;;11.48;100.00
55914;BME280;58179;48.776;9.124;2022-09-12T04:42:04;97389.91;;;11.45;100.00
55914;BME280;58179;48.776;9.124;2022-09-12T04:44:30;97389.09;;;11.45;100.00
55914;BME280;58179;48.776;9.124;2022-09-12T04:46:56;97397.06;;;11.45;100.00
55914;BME280;58179;48.776;9.124;2022-09-12T04:49:22;97398.09;;;11.44;100.00
55914;BME280;58179;48.776;9.124;2022-09-12T04:51:48;97393.09;;;11.42;100.00
55914;BME280;58179;48.776;9.124;2022-09-12T04:54:18;97394.13;;;11.41;100.00
55914;BME280;58179;48.776;9.124;2022-09-12T04:56:46;97392.78;;;11.39;100.00
55914;BME280;58179;48.776;9.124;2022-09-12T04:59:16;97386.44;;;11.40;100.00
55914;BME280;58179;48.776;9.124;2022-09-12T05:01:43;97389.34;;;11.38;100.00
55914;BME280;58179;48.776;9.124;2022-09-12T05:04:09;97388.53;;;11.38;100.00
55914;BME280;58179;48.776;9.124;2022-09-12T05:06:36;97388.53;;;11.38;100.00
55914;BME280;58179;48.776;9.124;2022-09-12T05:09:05;97388.78;;;11.36;100.00
55914;BME280;58179;48.776;9.124;2022-09-12T05:11:35;97393.28;;;11.36;100.00
55914;BME280;58179;48.776;9.124;2022-09-12T05:14:02;97389.81;;;11.35;100.00
55914;BME280;58179;48.776;9.124;2022-09-12T05:16:31;97395.69;;;11.37;100.00
55914;BME280;58179;48.776;9.124;2022-09-12T05:18:58;97386.13;;;11.36;100.00
55914;BME280;58179;48.776;9.124;2022-09-12T05:21:25;97397.50;;;11.32;100.00
55914;BME280;58179;48.776;9.124;2022-09-12T05:23:52;97387.16;;;11.30;100.00
55914;BME280;58179;48.776;9.124;2022-09-12T05:26:19;97383.72;;;11.30;100.00
55914;BME280;58179;48.776;9.124;2022-09-12T05:28:47;97389.31;;;11.33;100.00
55914;BME280;58179;48.776;9.124;2022-09-12T05:31:17;97386.66;;;11.33;100.00
55914;BME280;58179;48.776;9.124;2022-09-12T05:33:47;97400.16;;;11.32;100.00
55914;BME280;58179;48.776;9.124;2022-09-12T05:36:16;97401.47;;;11.29;100.00
55914;BME280;58179;48.776;9.124;2022-09-12T05:38:43;97398.56;;;11.31;100.00
55914;BME280;58179;48.776;9.124;2022-09-12T05:41:11;97399.34;;;11.31;100.00
55914;BME280;58179;48.776;9.124;2022-09-12T05:43:39;97399.66;;;11.35;100.00
55914;BME280;58179;48.776;9.124;2022-09-12T05:46:10;97399.09;;;11.33;100.00
55914;BME280;58179;48.776;9.124;2022-09-12T05:48:39;97396.22;;;11.34;100.00
55914;BME280;58179;48.776;9.124;2022-09-12T05:51:09;97410.28;;;11.40;100.00
55914;BME280;58179;48.776;9.124;2022-09-12T05:53:37;97402.09;;;11.41;100.00
55914;BME280;58179;48.776;9.124;2022-09-12T05:56:08;97404.19;;;11.44;100.00
55914;BME280;58179;48.776;9.124;2022-09-12T05:58:37;97404.75;;;11.46;100.00
55914;BME280;58179;48.776;9.124;2022-09-12T06:01:05;97405.06;;;11.50;100.00
55914;BME280;58179;48.776;9.124;2022-09-12T06:03:33;97407.19;;;11.53;100.00
55914;BME280;58179;48.776;9.124;2022-09-12T06:06:04;97408.00;;;11.58;100.00
55914;BME280;58179;48.776;9.124;2022-09-12T06:08:33;97409.91;;;11.63;100.00
55914;BME280;58179;48.776;9.124;2022-09-12T06:11:00;97407.25;;;11.68;100.00
55914;BME280;58179;48.776;9.124;2022-09-12T06:13:27;97408.09;;;11.74;100.00
55914;BME280;58179;48.776;9.124;2022-09-12T06:15:53;97404.44;;;11.80;100.00
55914;BME280;58179;48.776;9.124;2022-09-12T06:18:19;97400.50;;;11.87;100.00
55914;BME280;58179;48.776;9.124;2022-09-12T06:20:45;97405.28;;;11.90;100.00
55914;BME280;58179;48.776;9.124;2022-09-12T06:23:11;97394.19;;;11.98;100.00
55914;BME280;58179;48.776;9.124;2022-09-12T06:25:45;97405.63;;;12.09;100.00
55914;BME280;58179;48.776;9.124;2022-09-12T06:28:12;97400.91;;;12.21;100.00
55914;BME280;58179;48.776;9.124;2022-09-12T06:30:38;97399.84;;;12.27;100.00
55914;BME280;58179;48.776;9.124;2022-09-12T06:33:04;97402.78;;;12.36;100.00
55914;BME280;58179;48.776;9.124;2022-09-12T06:35:30;97400.69;;;12.43;100.00
55914;BME280;58179;48.776;9.124;2022-09-12T06:37:56;97398.31;;;12.52;100.00
55914;BME280;58179;48.776;9.124;2022-09-12T06:40:22;97400.97;;;12.57;100.00
55914;BME280;58179;48.776;9.124;2022-09-12T06:42:49;97397.00;;;12.59;100.00
55914;BME280;58179;48.776;9.124;2022-09-12T06:45:15;97400.72;;;12.63;100.00
55914;BME280;58179;48.776;9.124;2022-09-12T06:47:41;97396.50;;;12.67;100.00
55914;BME280;58179;48.776;9.124;2022-09-12T06:50:08;97400.19;;;12.71;100.00
55914;BME280;58179;48.776;9.124;2022-09-12T06:52:34;97402.09;;;12.76;100.00
55914;BME280;58179;48.776;9.124;2022-09-12T06:55:00;97405.78;;;12.80;100.00
55914;BME280;58179;48.776;9.124;2022-09-12T06:57:25;97409.53;;;12.84;100.00
55914;BME280;58179;48.776;9.124;2022-09-12T06:59:56;97411.38;;;12.89;100.00
55914;BME280;58179;48.776;9.124;2022-09-12T07:02:22;97416.44;;;12.95;100.00
55914;BME280;58179;48.776;9.124;2022-09-12T07:04:50;97407.69;;;13.00;100.00
55914;BME280;58179;48.776;9.124;2022-09-12T07:07:16;97410.56;;;13.08;100.00
55914;BME280;58179;48.776;9.124;2022-09-12T07:09:42;97411.66;;;13.12;100.00
55914;BME280;58179;48.776;9.124;2022-09-12T07:12:09;97406.91;;;13.20;100.00
55914;BME280;58179;48.776;9.124;2022-09-12T07:14:35;97396.00;;;13.26;100.00
55914;BME280;58179;48.776;9.124;2022-09-12T07:17:02;97397.31;;;13.34;100.00
55914;BME280;58179;48.776;9.124;2022-09-12T07:19:28;97389.06;;;13.40;100.00
55914;BME280;58179;48.776;9.124;2022-09-12T07:21:54;97403.16;;;13.51;100.00
55914;BME280;58179;48.776;9.124;2022-09-12T07:24:20;97402.59;;;13.59;100.00
55914;BME280;58179;48.776;9.124;2022-09-12T07:26:45;97404.16;;;13.70;100.00
55914;BME280;58179;48.776;9.124;2022-09-12T07:29:15;97402.25;;;13.76;100.00
55914;BME280;58179;48.776;9.124;2022-09-12T07:31:41;97393.72;;;13.84;100.00
55914;BME280;58179;48.776;9.124;2022-09-12T07:34:08;97392.63;;;13.95;100.00
55914;BME280;58179;48.776;9.124;2022-09-12T07:36:34;97400.34;;;13.91;100.00
55914;BME280;58179;48.776;9.124;2022-09-12T07:39:00;97395.03;;;13.97;100.00
55914;BME280;58179;48.776;9.124;2022-09-12T07:41:29;97398.47;;;14.02;100.00
55914;BME280;58179;48.776;9.124;2022-09-12T07:43:57;97398.66;;;14.16;100.00
55914;BME280;58179;48.776;9.124;2022-09-12T07:46:25;97398.56;;;14.36;100.00
55914;BME280;58179;48.776;9.124;2022-09-12T07:48:52;97404.13;;;14.50;100.00
55914;BME280;58179;48.776;9.124;2022-09-12T07:51:21;97397.13;;;14.59;100.00
55914;BME280;58179;48.776;9.124;2022-09-12T07:53:47;97393.13;;;14.61;100.00
55914;BME280;58179;48.776;9.124;2022-09-12T07:56:14;97400.22;;;14.76;100.00
55914;BME280;58179;48.776;9.124;2022-09-12T07:58:42;97400.69;;;14.83;100.00
55914;BME280;58179;48.776;9.124;2022-09-12T08:01:10;97397.69;;;14.95;99.15
55914;BME280;58179;48.776;9.124;2022-09-12T08:03:38;97397.84;;;15.08;98.15
55914;BME280;58179;48.776;9.124;2022-09-12T08:06:05;97391.66;;;15.18;98.65
55914;BME280;58179;48.776;9.124;2022-09-12T08:08:34;97399.25;;;15.30;100.00
55914;BME280;58179;48.776;9.124;2022-09-12T08:11:03;97404.59;;;15.30;96.40
55914;BME280;58179;48.776;9.124;2022-09-12T08:13:31;97391.72;;;15.37;92.47
55914;BME280;58179;48.776;9.124;2022-09-12T08:15:58;97395.66;;;15.44;94.25
55914;BME280;58179;48.776;9.124;2022-09-12T08:18:25;97396.59;;;15.59;91.73
55914;BME280;58179;48.776;9.124;2022-09-12T08:20:56;97395.19;;;15.66;87.02
55914;BME280;58179;48.776;9.124;2022-09-12T08:23:22;97397.19;;;15.79;90.27
55914;BME280;58179;48.776;9.124;2022-09-12T08:25:51;97393.88;;;15.87;91.85
55914;BME280;58179;48.776;9.124;2022-09-12T08:28:19;97394.34;;;15.95;92.90
55914;BME280;58179;48.776;9.124;2022-09-12T08:30:45;97397.53;;;15.97;92.43
55914;BME280;58179;48.776;9.124;2022-09-12T08:33:11;97391.94;;;16.17;87.65
55914;BME280;58179;48.776;9.124;2022-09-12T08:35:37;97392.69;;;16.22;87.30
55914;BME280;58179;48.776;9.124;2022-09-12T08:38:03;97402.28;;;16.23;84.96
55914;BME280;58179;48.776;9.124;2022-09-12T08:40:29;97400.63;;;16.27;87.68
55914;BME280;58179;48.776;9.124;2022-09-12T08:43:03;97397.88;;;16.33;89.17
55914;BME280;58179;48.776;9.124;2022-09-12T08:45:41;97390.09;;;16.36;89.48
55914;BME280;58179;48.776;9.124;2022-09-12T08:48:12;97389.16;;;16.46;90.85
55914;BME280;58179;48.776;9.124;2022-09-12T08:50:39;97387.72;;;16.53;91.29
55914;BME280;58179;48.776;9.124;2022-09-12T08:53:13;97386.19;;;16.47;84.50
55914;BME280;58179;48.776;9.124;2022-09-12T08:55:43;97387.88;;;16.62;87.73
55914;BME280;58179;48.776;9.124;2022-09-12T08:58:15;97389.41;;;16.68;88.61
55914;BME280;58179;48.776;9.124;2022-09-12T09:00:49;97387.66;;;16.77;89.33
55914;BME280;58179;48.776;9.124;2022-09-12T09:06:48;97391.22;;;16.91;88.64
55914;BME280;58179;48.776;9.124;2022-09-12T09:09:24;97388.94;;;16.98;88.67
55914;BME280;58179;48.776;9.124;2022-09-12T09:12:04;97381.13;;;17.02;88.92
55914;BME280;58179;48.776;9.124;2022-09-12T09:15:00;97381.75;;;17.13;88.78
55914;BME280;58179;48.776;9.124;2022-09-12T09:17:33;97387.03;;;17.18;88.18
55914;BME280;58179;48.776;9.124;2022-09-12T09:20:04;97385.03;;;17.23;88.28
55914;BME280;58179;48.776;9.124;2022-09-12T09:22:41;97389.94;;;17.35;88.56
55914;BME280;58179;48.776;9.124;2022-09-12T09:25:16;97372.91;;;17.45;88.75
55914;BME280;58179;48.776;9.124;2022-09-12T09:27:49;97375.41;;;17.55;88.21
55914;BME280;58179;48.776;9.124;2022-09-12T09:30:20;97371.78;;;17.64;87.40
55914;BME280;58179;48.776;9.124;2022-09-12T09:32:50;97379.69;;;17.69;84.55
55914;BME280;58179;48.776;9.124;2022-09-12T09:35:24;97372.47;;;17.70;75.54
55914;BME280;58179;48.776;9.124;2022-09-12T09:38:00;97373.88;;;17.81;78.97
55914;BME280;58179;48.776;9.124;2022-09-12T09:40:40;97379.81;;;17.92;74.38
55914;BME280;58179;48.776;9.124;2022-09-12T09:43:19;97386.75;;;18.06;78.88
55914;BME280;58179;48.776;9.124;2022-09-12T09:45:49;97390.59;;;18.14;80.21
55914;BME280;58179;48.776;9.124;2022-09-12T09:48:18;97381.97;;;18.17;76.77
55914;BME280;58179;48.776;9.124;2022-09-12T09:50:48;97380.19;;;18.26;78.76
55914;BME280;58179;48.776;9.124;2022-09-12T09:53:28;97381.44;;;18.42;74.04
55914;BME280;58179;48.776;9.124;2022-09-12T09:56:00;97386.69;;;18.47;75.11
55914;BME280;58179;48.776;9.124;2022-09-12T09:58:29;97379.75;;;18.46;68.64
55914;BME280;58179;48.776;9.124;2022-09-12T10:01:00;97380.16;;;18.40;63.18
55914;BME280;58179;48.776;9.124;2022-09-12T10:03:33;97377.06;;;18.60;70.43
55914;BME280;58179;48.776;9.124;2022-09-12T10:06:06;97370.25;;;18.76;69.93
55914;BME280;58179;48.776;9.124;2022-09-12T10:08:34;97367.88;;;18.75;67.46
55914;BME280;58179;48.776;9.124;2022-09-12T10:11:04;97375.97;;;18.83;70.97
55914;BME280;58179;48.776;9.124;2022-09-12T10:13:36;97372.00;;;19.03;63.76
55914;BME280;58179;48.776;9.124;2022-09-12T10:16:15;97368.78;;;19.15;66.37
55914;BME280;58179;48.776;9.124;2022-09-12T10:18:43;97363.91;;;19.17;62.09
55914;BME280;58179;48.776;9.124;2022-09-12T10:21:20;97367.41;;;19.26;63.02
55914;BME280;58179;48.776;9.124;2022-09-12T10:23:52;97367.28;;;19.53;64.84
55914;BME280;58179;48.776;9.124;2022-09-12T10:26:24;97367.53;;;19.43;60.61
55914;BME280;58179;48.776;9.124;2022-09-12T10:28:53;97370.16;;;19.34;61.30
55914;BME280;58179;48.776;9.124;2022-09-12T10:31:27;97366.91;;;19.46;65.28
55914;BME280;58179;48.776;9.124;2022-09-12T10:33:56;97359.09;;;19.58;66.58
55914;BME280;58179;48.776;9.124;2022-09-12T10:36:23;97367.69;;;19.69;68.62
55914;BME280;58179;48.776;9.124;2022-09-12T10:38:50;97359.34;;;19.88;69.82
55914;BME280;58179;48.776;9.124;2022-09-12T10:41:18;97363.06;;;20.09;67.56
55914;BME280;58179;48.776;9.124;2022-09-12T10:43:46;97359.75;;;20.12;67.37
55914;BME280;58179;48.776;9.124;2022-09-12T10:46:28;97362.28;;;20.17;68.64
55914;BME280;58179;48.776;9.124;2022-09-12T10:49:19;97349.50;;;20.31;64.69
55914;BME280;58179;48.776;9.124;2022-09-12T10:51:46;97352.19;;;20.31;67.26
55914;BME280;58179;48.776;9.124;2022-09-12T10:54:12;97351.13;;;20.41;69.41
55914;BME280;58179;48.776;9.124;2022-09-12T10:56:51;97347.16;;;20.38;65.68
55914;BME280;58179;48.776;9.124;2022-09-12T10:59:29;97345.28;;;20.56;70.05
55914;BME280;58179;48.776;9.124;2022-09-12T11:02:08;97343.88;;;20.67;71.19
55914;BME280;58179;48.776;9.124;2022-09-12T11:04:51;97336.59;;;20.59;60.11
55914;BME280;58179;48.776;9.124;2022-09-12T11:07:37;97330.56;;;20.71;62.48
55914;BME280;58179;48.776;9.124;2022-09-12T11:10:20;97325.97;;;20.97;60.45
55914;BME280;58179;48.776;9.124;2022-09-12T11:13:00;97320.13;;;20.61;50.84
55914;BME280;58179;48.776;9.124;2022-09-12T11:15:50;97318.56;;;20.60;53.83
55914;BME280;58179;48.776;9.124;2022-09-12T11:18:40;97318.22;;;20.53;56.05
55914;BME280;58179;48.776;9.124;2022-09-12T11:21:34;97317.44;;;20.61;63.26
55914;BME280;58179;48.776;9.124;2022-09-12T11:24:25;97312.53;;;20.54;56.00
55914;BME280;58179;48.776;9.124;2022-09-12T11:27:03;97308.56;;;20.60;59.07
55914;BME280;58179;48.776;9.124;2022-09-12T11:29:47;97315.22;;;20.71;64.24
55914;BME280;58179;48.776;9.124;2022-09-12T11:32:48;97307.75;;;20.94;67.00
55914;BME280;58179;48.776;9.124;2022-09-12T11:35:26;97302.34;;;21.03;64.71
55914;BME280;58179;48.776;9.124;2022-09-12T11:38:26;97292.81;;;21.14;60.55
55914;BME280;58179;48.776;9.124;2022-09-12T11:41:00;97292.81;;;21.22;59.85
55914;BME280;58179;48.776;9.124;2022-09-12T11:43:35;97288.19;;;21.32;59.55
55914;BME280;58179;48.776;9.124;2022-09-12T11:46:11;97290.41;;;21.30;54.96
55914;BME280;58179;48.776;9.124;2022-09-12T11:48:44;97289.91;;;21.36;56.66
55914;BME280;58179;48.776;9.124;2022-09-12T11:51:18;97295.16;;;21.33;54.69
55914;BME280;58179;48.776;9.124;2022-09-12T11:53:58;97291.19;;;21.39;56.46
55914;BME280;58179;48.776;9.124;2022-09-12T11:56:25;97292.03;;;21.60;63.05
55914;BME280;58179;48.776;9.124;2022-09-12T11:58:57;97281.84;;;21.66;62.97
55914;BME280;58179;48.776;9.124;2022-09-12T12:01:30;97280.06;;;21.78;65.03
55914;BME280;58179;48.776;9.124;2022-09-12T12:03:58;97281.84;;;21.66;52.08
55914;BME280;58179;48.776;9.124;2022-09-12T12:06:31;97275.75;;;21.86;55.44
55914;BME280;58179;48.776;9.124;2022-09-12T12:08:58;97275.28;;;21.84;59.24
55914;BME280;58179;48.776;9.124;2022-09-12T12:11:29;97282.34;;;21.97;58.94
55914;BME280;58179;48.776;9.124;2022-09-12T12:14:00;97280.59;;;21.92;58.43
55914;BME280;58179;48.776;9.124;2022-09-12T12:16:28;97271.38;;;22.02;58.95
55914;BME280;58179;48.776;9.124;2022-09-12T12:18:58;97273.03;;;22.15;62.47
55914;BME280;58179;48.776;9.124;2022-09-12T12:21:38;97266.63;;;22.40;54.69
55914;BME280;58179;48.776;9.124;2022-09-12T12:24:15;97267.06;;;22.84;53.60
55914;BME280;58179;48.776;9.124;2022-09-12T12:26:59;97268.94;;;22.51;50.14
55914;BME280;58179;48.776;9.124;2022-09-12T12:29:42;97266.19;;;22.92;56.41
55914;BME280;58179;48.776;9.124;2022-09-12T12:32:23;97263.34;;;22.76;50.88
55914;BME280;58179;48.776;9.124;2022-09-12T12:34:49;97256.63;;;22.95;55.02
55914;BME280;58179;48.776;9.124;2022-09-12T12:37:52;97255.09;;;23.18;55.72
55914;BME280;58179;48.776;9.124;2022-09-12T12:40:24;97251.41;;;23.35;50.70
55914;BME280;58179;48.776;9.124;2022-09-12T12:43:04;97247.84;;;23.55;46.39
55914;BME280;58179;48.776;9.124;2022-09-12T12:46:11;97259.03;;;24.06;47.39
55914;BME280;58179;48.776;9.124;2022-09-12T12:48:51;97249.09;;;24.22;43.38
55914;BME280;58179;48.776;9.124;2022-09-12T12:51:37;97244.22;;;24.83;44.04
55914;BME280;58179;48.776;9.124;2022-09-12T12:57:25;97235.41;;;25.61;39.55
55914;BME280;58179;48.776;9.124;2022-09-12T12:59:54;97243.19;;;25.98;40.29
55914;BME280;58179;48.776;9.124;2022-09-12T13:02:26;97233.88;;;26.72;43.33
55914;BME280;58179;48.776;9.124;2022-09-12T13:04:54;97235.31;;;27.31;42.48
55914;BME280;58179;48.776;9.124;2022-09-12T13:07:28;97231.28;;;28.23;42.24
55914;BME280;58179;48.776;9.124;2022-09-12T13:09:57;97219.22;;;28.58;45.14
55914;BME280;58179;48.776;9.124;2022-09-12T13:12:28;97228.13;;;29.29;45.09
55914;BME280;58179;48.776;9.124;2022-09-12T13:14:57;97214.50;;;29.80;37.60
55914;BME280;58179;48.776;9.124;2022-09-12T13:17:32;97212.03;;;30.26;37.79
55914;BME280;58179;48.776;9.124;2022-09-12T13:20:18;97206.75;;;30.75;34.42
55914;BME280;58179;48.776;9.124;2022-09-12T13:22:49;97211.84;;;31.98;32.79
55914;BME280;58179;48.776;9.124;2022-09-12T13:25:29;97207.97;;;31.91;31.06
55914;BME280;58179;48.776;9.124;2022-09-12T13:28:03;97207.22;;;31.45;30.63